createdAt,value
2022-09-12T00:08:14.027Z,1005.6139999999999
2022-09-12T00:38:32.834Z,1005.4730000000001
2022-09-12T01:08:49.849Z,1005.279
2022-09-12T01:39:07.513Z,1005.1260000000001
2022-09-12T02:09:25.278Z,1004.9780000000001
2022-09-12T02:39:45.112Z,1004.919
2022-09-12T03:10:03.756Z,1004.798
2022-09-12T03:40:20.804Z,1004.7869999999999
2022-09-12T04:10:38.726Z,1004.783
2022-09-12T04:40:56.065Z,1004.832
2022-09-12T05:11:14.088Z,1004.732
2022-09-12T05:41:32.607Z,1004.862
2022-09-12T06:11:52.386Z,1004.7560000000001
2022-09-12T06:42:19.424Z,1004.6419999999999
2022-09-12T07:12:45.535Z,1004.722
2022-09-12T07:43:09.358Z,1004.702
2022-09-12T08:13:29.096Z,1004.7139999999999
2022-09-12T08:43:56.082Z,1004.828
2022-09-12T09:14:16.483Z,1004.823
2022-09-12T09:44:38.274Z,1004.747
2022-09-12T10:14:56.959Z,1004.566
2022-09-12T10:45:19.741Z,1004.189
2022-09-12T11:15:42.682Z,1004.0319999999999
2022-09-12T11:46:01.012Z,1003.9910000000001
2022-09-12T12:16:22.902Z,1003.7180000000001
2022-09-12T12:46:43.769Z,1003.43
2022-09-12T13:17:00.365Z,1003.248
2022-09-12T13:46:55.296Z,1002.9019999999999
2022-09-12T14:17:07.723Z,1002.6389999999999
2022-09-12T14:47:25.387Z,1002.303
2022-09-12T15:17:42.090Z,1002.079
2022-09-12T15:47:59.618Z,1001.758
2022-09-12T16:18:18.075Z,1001.6510000000001
2022-09-12T16:48:36.559Z,1001.346
2022-09-12T17:18:52.072Z,1001.387
2022-09-12T17:49:08.832Z,1001.301
2022-09-12T18:19:25.419Z,1001.329
2022-09-12T18:49:43.223Z,1001.4110000000001
2022-09-12T19:19:59.933Z,1001.325
2022-09-12T19:50:15.413Z,1001.283
2022-09-12T20:20:31.533Z,1000.924
2022-09-12T20:50:49.418Z,1000.5830000000001
2022-09-12T21:21:18.872Z,1000.558
2022-09-12T21:51:35.221Z,1000.3989999999999
2022-09-12T22:21:53.759Z,1000.3919999999999
2022-09-12T22:52:10.679Z,1000.184
2022-09-12T23:22:27.778Z,1000.123
2022-09-12T23:52:51.271Z,999.9939999999999
